sensor_id;sensor_type;location;lat;lon;timestamp;temperature;humidity
62912;DHT22;49111;51.028;4.218;2022-12-20T06:52:20;12.90;99.90
62912;DHT22;49111;51.028;4.218;2022-12-20T06:54:49;12.80;99.90
62912;DHT22;49111;51.028;4.218;2022-12-20T06:57:18;12.80;99.90
62912;DHT22;49111;51.028;4.218;2022-12-20T06:59:46;12.80;99.90
62912;DHT22;49111;51.028;4.218;2022-12-20T07:02:12;12.80;99.90
62912;DHT22;49111;51.028;4.218;2022-12-20T07:04:37;12.80;99.90
62912;DHT22;49111;51.028;4.218;2022-12-20T07:07:03;12.70;99.90
62912;DHT22;49111;51.028;4.218;2022-12-20T07:09:29;12.70;99.90
62912;DHT22;49111;51.028;4.218;2022-12-20T07:11:56;12.70;99.90
62912;DHT22;49111;51.028;4.218;2022-12-20T07:14:21;12.60;99.90
62912;DHT22;49111;51.028;4.218;2022-12-20T07:16:47;12.60;99.90
62912;DHT22;49111;51.028;4.218;2022-12-20T07:19:14;12.60;99.90
62912;DHT22;49111;51.028;4.218;2022-12-20T07:21:41;12.50;99.90
62912;DHT22;49111;51.028;4.218;2022-12-20T07:24:07;12.50;99.90
62912;DHT22;49111;51.028;4.218;2022-12-20T07:26:33;12.40;99.90
62912;DHT22;49111;51.028;4.218;2022-12-20T07:29:00;12.50;99.90
62912;DHT22;49111;51.028;4.218;2022-12-20T07:31:27;12.40;99.90
62912;DHT22;49111;51.028;4.218;2022-12-20T07:33:52;12.40;99.90
62912;DHT22;49111;51.028;4.218;2022-12-20T07:36:18;12.40;99.90
62912;DHT22;49111;51.028;4.218;2022-12-20T07:38:47;12.20;99.90
62912;DHT22;49111;51.028;4.218;2022-12-20T07:41:15;12.10;99.90
62912;DHT22;49111;51.028;4.218;2022-12-20T07:43:52;12.00;99.90
62912;DHT22;49111;51.028;4.218;2022-12-20T07:46:21;12.00;99.90
62912;DHT22;49111;51.028;4.218;2022-12-20T07:48:47;12.00;99.90
62912;DHT22;49111;51.028;4.218;2022-12-20T07:51:24;11.80;99.90
62912;DHT22;49111;51.028;4.218;2022-12-20T07:54:01;11.80;99.90
62912;DHT22;49111;51.028;4.218;2022-12-20T07:56:28;11.70;99.90
62912;DHT22;49111;51.028;4.218;2022-12-20T07:58:56;11.70;99.90
62912;DHT22;49111;51.028;4.218;2022-12-20T08:01:25;11.60;99.90
62912;DHT22;49111;51.028;4.218;2022-12-20T08:03:55;11.60;99.90
62912;DHT22;49111;51.028;4.218;2022-12-20T08:06:22;11.60;99.90
62912;DHT22;49111;51.028;4.218;2022-12-20T08:08:53;11.60;99.90
62912;DHT22;49111;51.028;4.218;2022-12-20T08:11:21;11.60;99.90
62912;DHT22;49111;51.028;4.218;2022-12-20T08:13:48;11.70;99.90
62912;DHT22;49111;51.028;4.218;2022-12-20T08:16:15;11.60;99.90
62912;DHT22;49111;51.028;4.218;2022-12-20T08:18:41;11.60;99.90
62912;DHT22;49111;51.028;4.218;2022-12-20T08:21:07;11.50;99.90
62912;DHT22;49111;51.028;4.218;2022-12-20T08:23:33;11.50;99.90
62912;DHT22;49111;51.028;4.218;2022-12-20T08:26:02;11.50;99.90
62912;DHT22;49111;51.028;4.218;2022-12-20T08:28:28;11.50;99.90
62912;DHT22;49111;51.028;4.218;2022-12-20T08:31:02;11.50;99.90
62912;DHT22;49111;51.028;4.218;2022-12-20T08:33:28;11.60;99.90
62912;DHT22;49111;51.028;4.218;2022-12-20T08:35:58;11.60;99.90
62912;DHT22;49111;51.028;4.218;2022-12-20T08:38:28;11.60;99.90
62912;DHT22;49111;51.028;4.218;2022-12-20T08:41:00;11.60;99.90
62912;DHT22;49111;51.028;4.218;2022-12-20T08:43:25;11.60;99.90
62912;DHT22;49111;51.028;4.218;2022-12-20T08:45:54;11.60;99.90
62912;DHT22;49111;51.028;4.218;2022-12-20T08:48:21;11.70;99.90
62912;DHT22;49111;51.028;4.218;2022-12-20T08:50:52;11.60;99.90
62912;DHT22;49111;51.028;4.218;2022-12-20T08:53:18;11.60;99.90
62912;DHT22;49111;51.028;4.218;2022-12-20T08:55:44;11.80;99.90
62912;DHT22;49111;51.028;4.218;2022-12-20T08:58:10;11.80;99.90
62912;DHT22;49111;51.028;4.218;2022-12-20T09:00:35;11.80;99.90
62912;DHT22;49111;51.028;4.218;2022-12-20T09:03:02;11.70;99.90
62912;DHT22;49111;51.028;4.218;2022-12-20T09:05:28;11.70;99.90
62912;DHT22;49111;51.028;4.218;2022-12-20T09:07:53;11.80;99.90
62912;DHT22;49111;51.028;4.218;2022-12-20T09:10:19;11.80;99.90
62912;DHT22;49111;51.028;4.218;2022-12-20T09:12:45;11.80;99.90
62912;DHT22;49111;51.028;4.218;2022-12-20T09:15:11;11.80;99.90
62912;DHT22;49111;51.028;4.218;2022-12-20T09:17:37;11.90;99.90
62912;DHT22;49111;51.028;4.218;2022-12-20T09:20:03;12.00;99.90
62912;DHT22;49111;51.028;4.218;2022-12-20T09:22:29;11.90;99.90
62912;DHT22;49111;51.028;4.218;2022-12-20T09:24:55;11.90;99.90
62912;DHT22;49111;51.028;4.218;2022-12-20T09:27:21;11.90;99.90
62912;DHT22;49111;51.028;4.218;2022-12-20T09:29:47;11.80;99.90
62912;DHT22;49111;51.028;4.218;2022-12-20T09:32:13;11.70;99.90
62912;DHT22;49111;51.028;4.218;2022-12-20T09:34:39;11.70;99.90
62912;DHT22;49111;51.028;4.218;2022-12-20T09:37:05;11.80;99.90
62912;DHT22;49111;51.028;4.218;2022-12-20T09:39:31;11.80;99.90
62912;DHT22;49111;51.028;4.218;2022-12-20T09:41:57;11.90;99.90
62912;DHT22;49111;51.028;4.218;2022-12-20T09:44:27;11.80;99.90
62912;DHT22;49111;51.028;4.218;2022-12-20T09:46:58;12.00;99.90
62912;DHT22;49111;51.028;4.218;2022-12-20T09:49:28;12.00;99.90
62912;DHT22;49111;51.028;4.218;2022-12-20T09:52:33;11.90;99.90
62912;DHT22;49111;51.028;4.218;2022-12-20T09:58:00;11.90;99.90
62912;DHT22;49111;51.028;4.218;2022-12-20T10:00:35;12.00;99.90
62912;DHT22;49111;51.028;4.218;2022-12-20T10:03:04;11.90;99.90
62912;DHT22;49111;51.028;4.218;2022-12-20T10:08:15;11.90;99.90
62912;DHT22;49111;51.028;4.218;2022-12-20T10:24:01;12.00;99.90
62912;DHT22;49111;51.028;4.218;2022-12-20T10:26:29;12.00;99.90
62912;DHT22;49111;51.028;4.218;2022-12-20T10:28:55;12.00;99.90
62912;DHT22;49111;51.028;4.218;2022-12-20T10:31:21;12.00;99.90
62912;DHT22;49111;51.028;4.218;2022-12-20T10:33:46;12.00;99.90
62912;DHT22;49111;51.028;4.218;2022-12-20T10:36:33;12.00;99.90
62912;DHT22;49111;51.028;4.218;2022-12-20T10:39:02;12.00;99.90
62912;DHT22;49111;51.028;4.218;2022-12-20T10:46:42;12.00;99.90
62912;DHT22;49111;51.028;4.218;2022-12-20T10:49:31;12.10;99.90
62912;DHT22;49111;51.028;4.218;2022-12-20T10:54:35;12.20;99.90
62912;DHT22;49111;51.028;4.218;2022-12-20T10:57:22;12.10;99.90
62912;DHT22;49111;51.028;4.218;2022-12-20T11:02:39;12.10;99.90
62912;DHT22;49111;51.028;4.218;2022-12-20T11:07:34;12.10;99.90
62912;DHT22;49111;51.028;4.218;2022-12-20T11:10:16;12.10;99.90
62912;DHT22;49111;51.028;4.218;2022-12-20T11:12:59;12.20;99.90
62912;DHT22;49111;51.028;4.218;2022-12-20T11:15:26;12.20;99.90
62912;DHT22;49111;51.028;4.218;2022-12-20T11:18:00;12.30;99.90
62912;DHT22;49111;51.028;4.218;2022-12-20T11:20:43;12.20;99.90
62912;DHT22;49111;51.028;4.218;2022-12-20T11:23:23;12.20;99.90
62912;DHT22;49111;51.028;4.218;2022-12-20T11:29:10;12.20;99.90
62912;DHT22;49111;51.028;4.218;2022-12-20T11:37:25;12.10;99.90
62912;DHT22;49111;51.028;4.218;2022-12-20T11:51:45;12.20;99.90
62912;DHT22;49111;51.028;4.218;2022-12-20T11:54:27;12.10;99.90
62912;DHT22;49111;51.028;4.218;2022-12-20T11:57:00;12.20;99.90
62912;DHT22;49111;51.028;4.218;2022-12-20T11:59:48;12.00;99.90
62912;DHT22;49111;51.028;4.218;2022-12-20T12:02:23;12.00;99.90
62912;DHT22;49111;51.028;4.218;2022-12-20T12:05:39;12.00;99.90
62912;DHT22;49111;51.028;4.218;2022-12-20T12:08:15;12.00;99.90
62912;DHT22;49111;51.028;4.218;2022-12-20T12:10:49;12.10;99.90
62912;DHT22;49111;51.028;4.218;2022-12-20T12:13:24;12.10;99.90
62912;DHT22;49111;51.028;4.218;2022-12-20T12:16:09;12.00;99.90
62912;DHT22;49111;51.028;4.218;2022-12-20T12:18:37;12.00;99.90
62912;DHT22;49111;51.028;4.218;2022-12-20T12:26:27;12.00;99.90
62912;DHT22;49111;51.028;4.218;2022-12-20T12:28:59;12.00;99.90
62912;DHT22;49111;51.028;4.218;2022-12-20T12:34:25;12.00;99.90
62912;DHT22;49111;51.028;4.218;2022-12-20T12:45:16;12.00;99.90
62912;DHT22;49111;51.028;4.218;2022-12-20T12:47:54;12.10;99.90
62912;DHT22;49111;51.028;4.218;2022-12-20T12:50:31;12.10;99.90
62912;DHT22;49111;51.028;4.218;2022-12-20T12:55:50;12.10;99.90
62912;DHT22;49111;51.028;4.218;2022-12-20T13:03:40;12.20;99.90
62912;DHT22;49111;51.028;4.218;2022-12-20T13:11:41;12.20;99.90
62912;DHT22;49111;51.028;4.218;2022-12-20T13:16:45;12.00;99.90
62912;DHT22;49111;51.028;4.218;2022-12-20T13:19:28;12.10;99.90
62912;DHT22;49111;51.028;4.218;2022-12-20T13:24:56;12.10;99.90
62912;DHT22;49111;51.028;4.218;2022-12-20T13:27:37;12.00;99.90
62912;DHT22;49111;51.028;4.218;2022-12-20T13:38:01;12.00;99.90
62912;DHT22;49111;51.028;4.218;2022-12-20T13:50:00;12.00;99.90
62912;DHT22;49111;51.028;4.218;2022-12-20T13:59:03;12.10;99.90
62912;DHT22;49111;51.028;4.218;2022-12-20T14:01:29;12.10;99.90
62912;DHT22;49111;51.028;4.218;2022-12-20T14:04:03;12.10;99.90
62912;DHT22;49111;51.028;4.218;2022-12-20T14:06:31;12.10;99.90
62912;DHT22;49111;51.028;4.218;2022-12-20T14:08:57;12.10;99.90
62912;DHT22;49111;51.028;4.218;2022-12-20T14:11:25;12.10;99.90
62912;DHT22;49111;51.028;4.218;2022-12-20T14:13:55;12.20;99.90
62912;DHT22;49111;51.028;4.218;2022-12-20T14:16:22;12.10;99.90
62912;DHT22;49111;51.028;4.218;2022-12-20T14:19:12;12.20;99.90
62912;DHT22;49111;51.028;4.218;2022-12-20T14:21:41;12.20;99.90
62912;DHT22;49111;51.028;4.218;2022-12-20T14:24:19;12.10;99.90
62912;DHT22;49111;51.028;4.218;2022-12-20T14:26:47;12.10;99.90
62912;DHT22;49111;51.028;4.218;2022-12-20T14:29:26;12.00;99.90
62912;DHT22;49111;51.028;4.218;2022-12-20T14:31:53;12.00;99.90
62912;DHT22;49111;51.028;4.218;2022-12-20T14:34:30;11.90;99.90
62912;DHT22;49111;51.028;4.218;2022-12-20T14:37:16;12.00;99.90
62912;DHT22;49111;51.028;4.218;2022-12-20T14:40:13;12.00;99.90
62912;DHT22;49111;51.028;4.218;2022-12-20T14:42:41;12.00;99.90
62912;DHT22;49111;51.028;4.218;2022-12-20T14:47:48;12.00;99.90
62912;DHT22;49111;51.028;4.218;2022-12-20T14:50:21;12.10;99.90
62912;DHT22;49111;51.028;4.218;2022-12-20T14:52:47;12.00;99.90
62912;DHT22;49111;51.028;4.218;2022-12-20T14:55:30;12.00;99.90
62912;DHT22;49111;51.028;4.218;2022-12-20T14:57:57;12.00;99.90
62912;DHT22;49111;51.028;4.218;2022-12-20T15:00:31;12.10;99.90
62912;DHT22;49111;51.028;4.218;2022-12-20T15:03:18;12.00;99.90
62912;DHT22;49111;51.028;4.218;2022-12-20T15:05:49;12.00;99.90
62912;DHT22;49111;51.028;4.218;2022-12-20T15:08:59;11.90;99.90
62912;DHT22;49111;51.028;4.218;2022-12-20T15:11:33;12.00;99.90
62912;DHT22;49111;51.028;4.218;2022-12-20T15:16:52;11.80;99.90
62912;DHT22;49111;51.028;4.218;2022-12-20T15:19:18;11.90;99.90
62912;DHT22;49111;51.028;4.218;2022-12-20T15:21:44;11.90;99.90
62912;DHT22;49111;51.028;4.218;2022-12-20T15:24:13;11.90;99.90
62912;DHT22;49111;51.028;4.218;2022-12-20T15:26:40;11.90;99.90
62912;DHT22;49111;51.028;4.218;2022-12-20T15:29:06;12.00;99.90
62912;DHT22;49111;51.028;4.218;2022-12-20T15:31:35;12.00;99.90
62912;DHT22;49111;51.028;4.218;2022-12-20T15:34:28;11.90;99.90
62912;DHT22;49111;51.028;4.218;2022-12-20T15:36:55;12.10;99.90
62912;DHT22;49111;51.028;4.218;2022-12-20T15:39:24;12.00;99.90
62912;DHT22;49111;51.028;4.218;2022-12-20T15:41:51;12.20;99.90
62912;DHT22;49111;51.028;4.218;2022-12-20T15:44:22;12.10;99.90
62912;DHT22;49111;51.028;4.218;2022-12-20T15:46:50;12.10;99.90
62912;DHT22;49111;51.028;4.218;2022-12-20T15:49:22;12.00;99.90
62912;DHT22;49111;51.028;4.218;2022-12-20T15:51:49;12.00;99.90
62912;DHT22;49111;51.028;4.218;2022-12-20T15:56:53;12.10;99.90
62912;DHT22;49111;51.028;4.218;2022-12-20T15:59:19;12.00;99.90
62912;DHT22;49111;51.028;4.218;2022-12-20T16:01:45;12.10;99.90
62912;DHT22;49111;51.028;4.218;2022-12-20T16:04:19;12.10;99.90
62912;DHT22;49111;51.028;4.218;2022-12-20T16:06:47;12.10;99.90
62912;DHT22;49111;51.028;4.218;2022-12-20T16:09:14;12.00;99.90
62912;DHT22;49111;51.028;4.218;2022-12-20T16:11:40;12.10;99.90
62912;DHT22;49111;51.028;4.218;2022-12-20T16:14:13;12.20;99.90
62912;DHT22;49111;51.028;4.218;2022-12-20T16:16:39;12.20;99.90
62912;DHT22;49111;51.028;4.218;2022-12-20T16:19:05;12.10;99.90
62912;DHT22;49111;51.028;4.218;2022-12-20T16:21:33;12.10;99.90
62912;DHT22;49111;51.028;4.218;2022-12-20T16:24:01;12.00;99.90
62912;DHT22;49111;51.028;4.218;2022-12-20T16:26:27;12.00;99.90
62912;DHT22;49111;51.028;4.218;2022-12-20T16:28:54;12.10;99.90
62912;DHT22;49111;51.028;4.218;2022-12-20T16:33:53;12.00;99.90
62912;DHT22;49111;51.028;4.218;2022-12-20T16:36:20;12.00;99.90
62912;DHT22;49111;51.028;4.218;2022-12-20T16:38:47;12.00;99.90
62912;DHT22;49111;51.028;4.218;2022-12-20T16:41:18;12.00;99.90
62912;DHT22;49111;51.028;4.218;2022-12-20T16:43:45;12.10;99.90
62912;DHT22;49111;51.028;4.218;2022-12-20T16:46:12;12.10;99.90
62912;DHT22;49111;51.028;4.218;2022-12-20T16:48:39;12.00;99.90
62912;DHT22;49111;51.028;4.218;2022-12-20T16:53:47;12.00;99.90
62912;DHT22;49111;51.028;4.218;2022-12-20T16:56:14;12.10;99.90
62912;DHT22;49111;51.028;4.218;2022-12-20T16:58:42;12.20;99.90
62912;DHT22;49111;51.028;4.218;2022-12-20T17:01:20;12.20;99.90
62912;DHT22;49111;51.028;4.218;2022-12-20T17:03:49;12.20;99.90
62912;DHT22;49111;51.028;4.218;2022-12-20T17:06:15;12.20;99.90
62912;DHT22;49111;51.028;4.218;2022-12-20T17:08:42;12.10;99.90
62912;DHT22;49111;51.028;4.218;2022-12-20T17:11:29;12.10;99.90
62912;DHT22;49111;51.028;4.218;2022-12-20T17:13:57;12.10;99.90
62912;DHT22;49111;51.028;4.218;2022-12-20T17:16:23;12.20;99.90
62912;DHT22;49111;51.028;4.218;2022-12-20T17:18:51;12.20;99.90
62912;DHT22;49111;51.028;4.218;2022-12-20T17:21:19;12.10;99.90
62912;DHT22;49111;51.028;4.218;2022-12-20T17:23:49;12.20;99.90
62912;DHT22;49111;51.028;4.218;2022-12-20T17:26:20;12.10;99.90
62912;DHT22;49111;51.028;4.218;2022-12-20T17:28:48;12.10;99.90
62912;DHT22;49111;51.028;4.218;2022-12-20T17:31:24;12.20;99.90
62912;DHT22;49111;51.028;4.218;2022-12-20T17:33:51;12.20;99.90
62912;DHT22;49111;51.028;4.218;2022-12-20T17:36:17;12.20;99.90
62912;DHT22;49111;51.028;4.218;2022-12-20T17:38:43;12.10;99.90
62912;DHT22;49111;51.028;4.218;2022-12-20T17:41:30;12.20;99.90
62912;DHT22;49111;51.028;4.218;2022-12-20T17:43:58;12.10;99.90
62912;DHT22;49111;51.028;4.218;2022-12-20T17:46:25;12.10;99.90
62912;DHT22;49111;51.028;4.218;2022-12-20T17:48:51;12.10;99.90
62912;DHT22;49111;51.028;4.218;2022-12-20T17:53:46;12.10;99.90
62912;DHT22;49111;51.028;4.218;2022-12-20T17:56:19;12.10;99.90
62912;DHT22;49111;51.028;4.218;2022-12-20T17:58:46;12.10;99.90
62912;DHT22;49111;51.028;4.218;2022-12-20T18:01:27;12.10;99.90
62912;DHT22;49111;51.028;4.218;2022-12-20T18:03:55;12.20;99.90
62912;DHT22;49111;51.028;4.218;2022-12-20T18:06:22;12.10;99.90
62912;DHT22;49111;51.028;4.218;2022-12-20T18:08:53;12.20;99.90
62912;DHT22;49111;51.028;4.218;2022-12-20T18:11:20;12.20;99.90
62912;DHT22;49111;51.028;4.218;2022-12-20T18:13:48;12.20;99.90
62912;DHT22;49111;51.028;4.218;2022-12-20T18:16:17;12.20;99.90
62912;DHT22;49111;51.028;4.218;2022-12-20T18:18:44;12.10;99.90
62912;DHT22;49111;51.028;4.218;2022-12-20T18:21:12;12.10;99.90
62912;DHT22;49111;51.028;4.218;2022-12-20T18:23:42;12.10;99.90
62912;DHT22;49111;51.028;4.218;2022-12-20T18:26:17;12.10;99.90
62912;DHT22;49111;51.028;4.218;2022-12-20T18:28:45;12.10;99.90
62912;DHT22;49111;51.028;4.218;2022-12-20T18:31:15;12.10;99.90
62912;DHT22;49111;51.028;4.218;2022-12-20T18:33:41;12.10;99.90
62912;DHT22;49111;51.028;4.218;2022-12-20T18:36:09;12.20;99.90
62912;DHT22;49111;51.028;4.218;2022-12-20T18:38:37;12.10;99.90
62912;DHT22;49111;51.028;4.218;2022-12-20T18:41:06;12.10;99.90
62912;DHT22;49111;51.028;4.218;2022-12-20T18:43:33;12.10;99.90
62912;DHT22;49111;51.028;4.218;2022-12-20T18:46:13;12.10;99.90
62912;DHT22;49111;51.028;4.218;2022-12-20T18:48:40;12.10;99.90
62912;DHT22;49111;51.028;4.218;2022-12-20T18:51:12;12.10;99.90
62912;DHT22;49111;51.028;4.218;2022-12-20T18:53:39;12.10;99.90
62912;DHT22;49111;51.028;4.218;2022-12-20T18:56:11;12.10;99.90
62912;DHT22;49111;51.028;4.218;2022-12-20T18:58:39;12.10;99.90
62912;DHT22;49111;51.028;4.218;2022-12-20T19:01:08;12.10;99.90
62912;DHT22;49111;51.028;4.218;2022-12-20T19:03:34;12.10;99.90
62912;DHT22;49111;51.028;4.218;2022-12-20T19:06:00;12.00;99.90
62912;DHT22;49111;51.028;4.218;2022-12-20T19:08:28;12.00;99.90
62912;DHT22;49111;51.028;4.218;2022-12-20T19:11:03;12.00;99.90
62912;DHT22;49111;51.028;4.218;2022-12-20T19:13:29;12.00;99.90
62912;DHT22;49111;51.028;4.218;2022-12-20T19:16:27;12.10;99.90
62912;DHT22;49111;51.028;4.218;2022-12-20T19:18:53;12.10;99.90
62912;DHT22;49111;51.028;4.218;2022-12-20T19:21:24;12.10;99.90
62912;DHT22;49111;51.028;4.218;2022-12-20T19:23:55;12.00;99.90
62912;DHT22;49111;51.028;4.218;2022-12-20T19:26:23;12.10;99.90
